createdAt,value
2022-11-29T00:01:03.771Z,1.57
2022-11-29T00:03:30.953Z,1.62
2022-11-29T00:06:03.934Z,1.61
2022-11-29T00:08:30.631Z,1.60
2022-11-29T00:10:57.215Z,1.58
2022-11-29T00:13:23.772Z,1.56
2022-11-29T00:15:50.355Z,1.54
2022-11-29T00:18:16.972Z,1.52
2022-11-29T00:20:43.536Z,1.54
2022-11-29T00:23:10.179Z,1.55
2022-11-29T00:25:38.580Z,1.51
2022-11-29T00:28:05.228Z,1.51
2022-11-29T00:30:31.967Z,1.51
2022-11-29T00:32:58.599Z,1.51
2022-11-29T00:35:25.872Z,1.47
2022-11-29T00:37:52.477Z,1.50
2022-11-29T00:40:19.113Z,1.42
2022-11-29T00:42:45.736Z,1.47
2022-11-29T00:45:12.328Z,1.53
2022-11-29T00:47:39.005Z,1.53
2022-11-29T00:50:07.225Z,1.56
2022-11-29T00:52:33.891Z,1.63
2022-11-29T00:55:00.644Z,1.59
2022-11-29T00:57:27.459Z,1.58
2022-11-29T00:59:54.023Z,1.56
2022-11-29T01:02:20.749Z,1.56
2022-11-29T01:04:47.530Z,1.52
2022-11-29T01:07:14.376Z,1.52
2022-11-29T01:09:41.152Z,1.57
2022-11-29T01:12:07.827Z,1.50
2022-11-29T01:14:34.497Z,1.51
2022-11-29T01:17:01.169Z,1.47
2022-11-29T01:19:27.776Z,1.48
2022-11-29T01:21:54.401Z,1.51
2022-11-29T01:24:22.375Z,1.49
2022-11-29T01:26:49.010Z,1.42
2022-11-29T01:29:15.643Z,1.41
2022-11-29T01:31:42.309Z,1.41
2022-11-29T01:34:08.911Z,1.41
2022-11-29T01:36:35.983Z,1.51
2022-11-29T01:39:05.468Z,1.55
2022-11-29T01:41:34.649Z,1.54
2022-11-29T01:44:05.875Z,1.43
2022-11-29T01:46:35.325Z,1.40
2022-11-29T01:49:09.819Z,1.39
2022-11-29T01:51:42.075Z,1.40
2022-11-29T01:54:10.967Z,1.47
2022-11-29T01:56:38.604Z,1.47
2022-11-29T01:59:11.301Z,1.39
2022-11-29T02:01:38.518Z,1.41
2022-11-29T02:04:06.922Z,1.39
2022-11-29T02:06:34.817Z,1.44
2022-11-29T02:09:01.825Z,1.45
2022-11-29T02:11:47.905Z,1.43
2022-11-29T02:15:06.862Z,1.42
2022-11-29T02:18:29.504Z,1.46
2022-11-29T02:21:22.619Z,1.43
2022-11-29T02:23:54.815Z,1.50
2022-11-29T02:27:15.108Z,1.46
2022-11-29T02:30:06.340Z,1.50
2022-11-29T02:33:06.549Z,1.38
2022-11-29T02:35:54.618Z,1.38
2022-11-29T02:38:46.991Z,1.39
2022-11-29T02:41:51.120Z,1.42
2022-11-29T02:44:43.845Z,1.46
2022-11-29T02:47:29.600Z,1.52
2022-11-29T02:50:18.713Z,1.50
2022-11-29T02:52:59.749Z,1.41
2022-11-29T02:55:40.534Z,1.35
2022-11-29T02:58:34.969Z,1.38
2022-11-29T03:01:23.388Z,1.44
2022-11-29T03:03:54.012Z,1.44
2022-11-29T03:07:04.585Z,1.39
2022-11-29T03:10:00.234Z,1.57
2022-11-29T03:12:44.623Z,1.45
2022-11-29T03:15:17.218Z,1.41
2022-11-29T03:18:09.377Z,1.40
2022-11-29T03:20:51.855Z,1.40
2022-11-29T03:23:33.815Z,1.36
2022-11-29T03:26:25.847Z,1.40
2022-11-29T03:29:18.932Z,1.36
2022-11-29T03:31:56.966Z,1.40
2022-11-29T03:34:29.393Z,1.40
2022-11-29T03:37:18.893Z,1.43
2022-11-29T03:40:02.173Z,1.44
2022-11-29T03:42:34.576Z,1.38
2022-11-29T03:45:19.190Z,1.35
2022-11-29T03:47:59.607Z,1.36
2022-11-29T03:50:33.673Z,1.32
2022-11-29T03:53:13.774Z,1.37
2022-11-29T03:55:54.041Z,1.34
2022-11-29T03:58:35.057Z,1.41
2022-11-29T04:01:15.893Z,1.41
2022-11-29T04:03:58.900Z,1.43
2022-11-29T04:07:00.687Z,1.38
2022-11-29T04:09:33.412Z,1.44
2022-11-29T04:12:44.445Z,1.36
2022-11-29T04:15:48.796Z,1.34
2022-11-29T04:18:21.449Z,1.43
2022-11-29T04:21:03.061Z,1.41
2022-11-29T04:24:06.981Z,1.41
2022-11-29T04:26:47.451Z,1.41
2022-11-29T04:29:35.601Z,1.46
2022-11-29T04:32:08.072Z,1.38
2022-11-29T04:34:42.328Z,1.36
2022-11-29T04:37:27.329Z,1.37
2022-11-29T04:40:50.810Z,1.41
2022-11-29T04:43:27.488Z,1.39
2022-11-29T04:46:18.710Z,1.37
2022-11-29T04:49:07.568Z,1.35
2022-11-29T04:52:06.085Z,1.36
2022-11-29T04:54:56.702Z,1.35
2022-11-29T04:57:44.351Z,1.35
2022-11-29T05:00:15.632Z,1.28
2022-11-29T05:02:57.083Z,1.32
2022-11-29T05:05:35.039Z,1.35
2022-11-29T05:08:15.835Z,1.36
2022-11-29T05:10:52.465Z,1.32
2022-11-29T05:13:31.311Z,1.30
2022-11-29T05:16:05.250Z,1.32
2022-11-29T05:18:56.344Z,1.27
2022-11-29T05:21:31.974Z,1.32
2022-11-29T05:24:17.384Z,1.33
2022-11-29T05:26:55.197Z,1.30
2022-11-29T05:29:30.736Z,1.33
2022-11-29T05:32:09.716Z,1.30
2022-11-29T05:34:55.123Z,1.28
2022-11-29T05:37:27.984Z,1.27
2022-11-29T05:40:13.737Z,1.32
2022-11-29T05:43:16.600Z,1.40
2022-11-29T05:45:56.395Z,1.38
2022-11-29T05:48:34.712Z,1.36
2022-11-29T05:51:19.853Z,1.34
2022-11-29T05:54:13.752Z,1.35
2022-11-29T05:56:55.524Z,1.38
2022-11-29T05:59:27.307Z,1.40
2022-11-29T06:02:11.707Z,1.39
2022-11-29T06:04:57.390Z,1.37
2022-11-29T06:07:51.655Z,1.41
2022-11-29T06:10:21.142Z,1.44
2022-11-29T06:13:21.973Z,1.39
2022-11-29T06:15:56.576Z,1.40
2022-11-29T06:18:46.297Z,1.47
2022-11-29T06:21:40.767Z,1.46
2022-11-29T06:24:25.963Z,1.45
2022-11-29T06:27:12.924Z,1.46
2022-11-29T06:29:48.780Z,1.46
2022-11-29T06:32:25.219Z,1.53
2022-11-29T06:35:09.328Z,1.57
2022-11-29T06:37:43.461Z,1.65
2022-11-29T06:40:12.444Z,1.64
2022-11-29T06:42:39.111Z,1.62
2022-11-29T06:45:06.721Z,1.72
2022-11-29T06:47:33.616Z,1.71
2022-11-29T06:50:26.527Z,1.66
2022-11-29T06:53:17.371Z,1.66
2022-11-29T06:55:47.091Z,1.78
2022-11-29T06:58:41.805Z,1.88
2022-11-29T07:01:25.543Z,1.77
2022-11-29T07:04:15.692Z,1.75
2022-11-29T07:06:42.723Z,1.79
2022-11-29T07:09:20.478Z,1.78
2022-11-29T07:11:47.921Z,1.85
2022-11-29T07:14:15.048Z,1.86
2022-11-29T07:16:57.297Z,1.87
2022-11-29T07:19:37.003Z,2.01
2022-11-29T07:22:20.632Z,2.05
2022-11-29T07:25:02.048Z,2.14
2022-11-29T07:27:37.495Z,2.22
2022-11-29T07:30:12.762Z,2.16
2022-11-29T07:33:00.662Z,2.17
2022-11-29T07:35:46.282Z,2.06
2022-11-29T07:38:21.788Z,2.04
2022-11-29T07:41:00.762Z,2.04
2022-11-29T07:43:33.660Z,2.05
2022-11-29T07:46:00.839Z,1.94
2022-11-29T07:48:27.636Z,1.96
2022-11-29T07:50:56.001Z,1.94
2022-11-29T07:53:23.753Z,2.06
2022-11-29T07:55:50.928Z,2.04
2022-11-29T07:58:18.661Z,2.09
2022-11-29T08:00:46.125Z,2.15
2022-11-29T08:03:12.940Z,2.10
2022-11-29T08:05:40.419Z,2.06
2022-11-29T08:08:07.859Z,2.20
2022-11-29T08:10:35.728Z,2.34
2022-11-29T08:13:02.412Z,2.28
2022-11-29T08:15:29.165Z,2.37
2022-11-29T08:17:55.764Z,2.21
2022-11-29T08:20:22.518Z,2.18
2022-11-29T08:22:59.669Z,2.19
2022-11-29T08:25:27.989Z,2.24
2022-11-29T08:27:55.297Z,2.27
2022-11-29T08:30:22.917Z,2.29
2022-11-29T08:32:51.836Z,2.32
2022-11-29T08:35:23.250Z,2.36
2022-11-29T08:37:50.244Z,2.52
2022-11-29T08:40:17.869Z,2.51
2022-11-29T08:42:44.632Z,2.49
2022-11-29T08:45:11.942Z,2.45
2022-11-29T08:47:40.156Z,2.54
2022-11-29T08:50:14.250Z,2.56
2022-11-29T08:53:07.546Z,2.60
2022-11-29T08:55:39.637Z,2.68
2022-11-29T08:58:09.133Z,2.77
2022-11-29T09:00:35.958Z,2.77
2022-11-29T09:03:22.609Z,2.67
2022-11-29T09:05:49.873Z,2.68
2022-11-29T09:08:16.477Z,2.60
2022-11-29T09:10:43.451Z,2.65
2022-11-29T09:13:10.947Z,2.52
2022-11-29T09:15:38.636Z,2.61
2022-11-29T09:18:05.810Z,2.70
2022-11-29T09:20:33.187Z,2.68
2022-11-29T09:23:00.617Z,2.72
2022-11-29T09:25:28.760Z,2.80
2022-11-29T09:27:58.540Z,2.78
2022-11-29T09:30:25.588Z,2.64
2022-11-29T09:32:52.296Z,2.86
2022-11-29T09:35:19.016Z,2.84
2022-11-29T09:37:45.903Z,2.84
2022-11-29T09:40:20.077Z,2.83
2022-11-29T09:42:58.083Z,2.87
2022-11-29T09:45:32.038Z,2.95
2022-11-29T09:48:10.493Z,3.04
2022-11-29T09:50:52.036Z,2.97
2022-11-29T09:53:23.943Z,3.11
2022-11-29T09:56:30.875Z,3.14
2022-11-29T09:59:10.188Z,2.92
2022-11-29T10:01:46.506Z,2.99
2022-11-29T10:04:24.556Z,3.11
2022-11-29T10:07:05.637Z,3.09
2022-11-29T10:09:40.937Z,3.12
2022-11-29T10:12:25.763Z,3.22
2022-11-29T10:14:56.467Z,3.35
2022-11-29T10:17:28.294Z,3.30
2022-11-29T10:20:04.753Z,3.27
2022-11-29T10:22:53.563Z,3.53
2022-11-29T10:25:29.790Z,3.71
2022-11-29T10:27:56.613Z,3.72
2022-11-29T10:30:23.375Z,3.67
2022-11-29T10:33:00.504Z,3.69
2022-11-29T10:35:27.336Z,3.70
2022-11-29T10:38:28.961Z,3.73
2022-11-29T10:40:49.308Z,3.63
2022-11-29T10:43:16.062Z,3.56
2022-11-29T10:45:44.356Z,3.41
2022-11-29T10:48:14.252Z,3.22
2022-11-29T10:50:44.265Z,3.13
2022-11-29T10:53:18.080Z,3.16
2022-11-29T10:55:53.751Z,3.02
2022-11-29T10:58:28.729Z,3.01
2022-11-29T11:01:07.912Z,2.94
2022-11-29T11:03:59.312Z,2.86
2022-11-29T11:06:46.656Z,2.84
2022-11-29T11:09:20.791Z,2.80
2022-11-29T11:12:13.579Z,2.91
2022-11-29T11:14:40.991Z,3.03
2022-11-29T11:17:16.966Z,3.24
2022-11-29T11:19:55.415Z,3.18
2022-11-29T11:22:23.933Z,3.37
2022-11-29T11:25:00.725Z,3.43
2022-11-29T11:27:33.955Z,3.50
2022-11-29T11:30:04.374Z,3.48
2022-11-29T11:32:31.512Z,3.50
2022-11-29T11:35:01.502Z,3.38
2022-11-29T11:37:32.626Z,3.37
2022-11-29T11:40:21.752Z,3.41
2022-11-29T11:42:48.861Z,3.52
2022-11-29T11:45:15.511Z,3.41
2022-11-29T11:47:46.479Z,3.36
2022-11-29T11:50:42.789Z,3.26
2022-11-29T11:53:29.870Z,3.19
2022-11-29T11:56:07.691Z,3.31
2022-11-29T11:58:36.881Z,3.33
2022-11-29T12:01:12.579Z,3.21
2022-11-29T12:03:57.716Z,3.24
2022-11-29T12:06:45.345Z,3.26
2022-11-29T12:09:36.531Z,3.07
2022-11-29T12:12:13.653Z,3.22
2022-11-29T12:14:50.340Z,3.31
2022-11-29T12:17:38.272Z,3.34
2022-11-29T12:20:10.611Z,3.32
2022-11-29T12:23:18.400Z,3.40
2022-11-29T12:25:53.513Z,3.34
2022-11-29T12:28:22.346Z,3.23
2022-11-29T12:30:58.258Z,3.19
2022-11-29T12:33:31.572Z,3.04
2022-11-29T12:36:11.879Z,3.02
2022-11-29T12:38:47.940Z,3.00
2022-11-29T12:41:39.334Z,2.99
2022-11-29T12:44:33.564Z,3.01
2022-11-29T12:47:35.048Z,3.02
2022-11-29T12:50:24.650Z,2.93
2022-11-29T12:53:13.147Z,2.88
2022-11-29T12:56:07.449Z,2.72
2022-11-29T12:59:07.080Z,3.00
2022-11-29T13:01:55.508Z,3.12
2022-11-29T13:04:40.947Z,3.16
2022-11-29T13:07:19.019Z,3.28
2022-11-29T13:10:36.211Z,3.28
2022-11-29T13:13:43.239Z,3.13
2022-11-29T13:16:47.370Z,3.33
2022-11-29T13:19:19.783Z,3.29
2022-11-29T13:21:56.953Z,3.27
2022-11-29T13:24:50.807Z,3.21
2022-11-29T13:27:27.367Z,3.14
2022-11-29T13:29:56.104Z,2.99
2022-11-29T13:32:35.972Z,2.89
2022-11-29T13:35:27.618Z,2.85
2022-11-29T13:38:01.283Z,2.85
2022-11-29T13:40:50.112Z,2.85
2022-11-29T13:43:45.758Z,2.74
2022-11-29T13:46:37.503Z,2.69
2022-11-29T13:49:04.165Z,2.68
2022-11-29T13:51:34.357Z,2.64
2022-11-29T13:54:26.898Z,2.56
2022-11-29T13:57:07.980Z,2.58
2022-11-29T13:59:41.585Z,2.59
2022-11-29T14:02:28.438Z,2.59
2022-11-29T14:04:55.280Z,2.61
2022-11-29T14:07:22.069Z,2.76
2022-11-29T14:10:17.118Z,2.81
2022-11-29T14:12:50.746Z,2.82
2022-11-29T14:15:26.725Z,2.81
2022-11-29T14:18:08.175Z,2.79
2022-11-29T14:20:43.980Z,2.77
2022-11-29T14:23:16.608Z,2.72
2022-11-29T14:25:58.759Z,2.65
2022-11-29T14:28:33.832Z,2.69
2022-11-29T14:31:03.692Z,2.76
2022-11-29T14:34:12.431Z,2.71
2022-11-29T14:36:52.184Z,2.71
2022-11-29T14:39:47.177Z,2.71
2022-11-29T14:42:20.279Z,2.63
2022-11-29T14:44:49.531Z,2.65
2022-11-29T14:47:26.854Z,2.75
2022-11-29T14:49:56.874Z,3.14
2022-11-29T14:52:29.510Z,3.46
2022-11-29T14:55:03.365Z,3.42
2022-11-29T14:57:48.374Z,3.44
2022-11-29T15:00:17.541Z,3.34
2022-11-29T15:02:50.224Z,3.19
2022-11-29T15:05:22.732Z,3.04
2022-11-29T15:08:19.017Z,2.86
2022-11-29T15:10:56.260Z,2.82
2022-11-29T15:13:27.870Z,2.73
2022-11-29T15:16:18.993Z,2.64
2022-11-29T15:19:17.097Z,2.60
2022-11-29T15:21:43.717Z,2.48
2022-11-29T15:24:14.397Z,2.46
2022-11-29T15:27:02.045Z,2.44
2022-11-29T15:29:30.933Z,2.50
2022-11-29T15:32:01.223Z,2.42
2022-11-29T15:34:37.433Z,2.41
2022-11-29T15:37:04.297Z,2.43
2022-11-29T15:39:36.087Z,2.43
2022-11-29T15:42:18.535Z,2.36
2022-11-29T15:44:49.304Z,2.37
2022-11-29T15:47:27.084Z,2.30
2022-11-29T15:49:54.314Z,2.32
2022-11-29T15:52:36.807Z,2.30
2022-11-29T15:55:10.125Z,2.25
2022-11-29T15:57:43.844Z,2.30
2022-11-29T16:00:20.396Z,2.33
2022-11-29T16:02:59.753Z,2.35
2022-11-29T16:05:33.821Z,2.30
2022-11-29T16:08:17.832Z,2.29
2022-11-29T16:10:49.378Z,2.26
2022-11-29T16:13:25.253Z,2.23
2022-11-29T16:16:19.490Z,2.25
2022-11-29T16:18:47.990Z,2.25
2022-11-29T16:21:27.943Z,2.28
2022-11-29T16:23:55.798Z,2.26
2022-11-29T16:26:29.788Z,2.34
2022-11-29T16:28:58.184Z,2.36
2022-11-29T16:31:33.500Z,2.30
2022-11-29T16:34:08.798Z,2.29
2022-11-29T16:36:36.558Z,2.26
2022-11-29T16:39:17.110Z,2.34
2022-11-29T16:41:44.093Z,2.38
2022-11-29T16:44:39.943Z,2.42
2022-11-29T16:47:20.283Z,2.38
2022-11-29T16:50:13.624Z,2.36
2022-11-29T16:52:40.537Z,2.40
2022-11-29T16:55:07.747Z,2.42
2022-11-29T16:57:35.385Z,2.40
2022-11-29T17:00:02.327Z,2.37
2022-11-29T17:02:30.155Z,2.40
2022-11-29T17:04:58.515Z,2.34
2022-11-29T17:07:32.377Z,2.38
2022-11-29T17:09:59.907Z,2.35
2022-11-29T17:12:26.570Z,2.35
2022-11-29T17:14:53.179Z,2.35
2022-11-29T17:17:20.092Z,2.35
2022-11-29T17:19:46.793Z,2.31
2022-11-29T17:22:13.509Z,2.24
2022-11-29T17:24:44.909Z,2.26
2022-11-29T17:27:14.553Z,2.24
2022-11-29T17:29:41.181Z,2.21
2022-11-29T17:32:08.043Z,2.19
2022-11-29T17:34:35.196Z,2.18
2022-11-29T17:37:01.960Z,2.15
2022-11-29T17:39:28.679Z,2.15
2022-11-29T17:41:55.241Z,2.15
2022-11-29T17:44:21.849Z,2.17
2022-11-29T17:46:48.672Z,2.16
2022-11-29T17:49:15.271Z,2.13
2022-11-29T17:51:57.461Z,2.20
2022-11-29T17:54:24.198Z,2.22
2022-11-29T17:56:51.233Z,2.16
2022-11-29T17:59:18.336Z,2.16
2022-11-29T18:01:47.303Z,2.15
2022-11-29T18:04:14.230Z,2.12
2022-11-29T18:06:41.652Z,2.16
2022-11-29T18:09:10.982Z,2.19
2022-11-29T18:11:48.481Z,2.16
2022-11-29T18:14:23.068Z,2.13
2022-11-29T18:16:50.304Z,2.16
2022-11-29T18:19:19.422Z,2.20
2022-11-29T18:21:46.744Z,2.17
2022-11-29T18:24:13.934Z,2.19
2022-11-29T18:26:41.284Z,2.20
2022-11-29T18:29:09.007Z,2.17
2022-11-29T18:31:38.669Z,2.16
2022-11-29T18:34:09.571Z,2.18
2022-11-29T18:36:39.604Z,2.17
2022-11-29T18:39:10.061Z,2.17
2022-11-29T18:41:38.047Z,2.17
2022-11-29T18:44:10.323Z,2.19
2022-11-29T18:46:39.308Z,2.13
2022-11-29T18:49:08.633Z,2.15
2022-11-29T18:51:37.206Z,2.11
2022-11-29T18:54:05.202Z,2.09
2022-11-29T18:56:34.447Z,2.06
2022-11-29T18:59:02.973Z,2.06
2022-11-29T19:01:32.483Z,2.03
2022-11-29T19:04:00.642Z,2.06
2022-11-29T19:06:39.421Z,2.06
2022-11-29T19:09:08.810Z,2.03
2022-11-29T19:11:35.490Z,2.04
2022-11-29T19:14:04.532Z,2.06
2022-11-29T19:16:33.923Z,2.07
2022-11-29T19:19:02.071Z,2.11
2022-11-29T19:21:31.899Z,2.11
2022-11-29T19:24:00.596Z,2.06
2022-11-29T19:26:29.780Z,2.08
2022-11-29T19:28:57.243Z,2.08
2022-11-29T19:31:25.244Z,2.03
2022-11-29T19:33:52.806Z,1.99
2022-11-29T19:36:22.955Z,2.01
2022-11-29T19:38:53.821Z,2.01
2022-11-29T19:41:22.873Z,2.05
2022-11-29T19:43:50.805Z,2.08
2022-11-29T19:46:23.370Z,2.06
2022-11-29T19:48:54.421Z,2.08
2022-11-29T19:51:22.468Z,2.05
2022-11-29T19:53:53.157Z,2.04
2022-11-29T19:56:23.113Z,2.02
2022-11-29T19:58:49.944Z,2.02
2022-11-29T20:01:19.496Z,2.02
2022-11-29T20:03:46.334Z,2.03
2022-11-29T20:06:16.298Z,2.03
2022-11-29T20:08:43.489Z,2.04
2022-11-29T20:11:14.125Z,2.06
2022-11-29T20:13:42.778Z,2.06
2022-11-29T20:16:14.712Z,2.06
2022-11-29T20:18:48.922Z,2.03
2022-11-29T20:21:18.883Z,2.02
2022-11-29T20:23:45.846Z,2.04
2022-11-29T20:26:18.161Z,2.03
2022-11-29T20:28:46.433Z,2.02
2022-11-29T20:31:17.700Z,2.03
2022-11-29T20:33:46.676Z,2.10
2022-11-29T20:36:36.282Z,2.06
2022-11-29T20:39:32.067Z,2.07
2022-11-29T20:42:31.530Z,2.05
2022-11-29T20:45:00.732Z,2.05
2022-11-29T20:47:33.256Z,2.00
2022-11-29T20:50:00.075Z,1.96
2022-11-29T20:53:20.891Z,1.96
2022-11-29T20:55:48.611Z,1.94
2022-11-29T20:58:16.028Z,1.95
2022-11-29T21:00:43.062Z,1.99
2022-11-29T21:03:16.240Z,1.98
2022-11-29T21:05:43.402Z,1.99
2022-11-29T21:08:10.173Z,2.00
2022-11-29T21:10:36.963Z,1.99
2022-11-29T21:13:04.149Z,2.00
2022-11-29T21:15:31.221Z,1.99
2022-11-29T21:17:58.157Z,1.97
2022-11-29T21:20:26.908Z,2.01
2022-11-29T21:23:11.588Z,2.01
2022-11-29T21:25:59.204Z,1.99
2022-11-29T21:28:34.345Z,2.04
2022-11-29T21:31:01.190Z,2.03
2022-11-29T21:33:28.023Z,2.06
2022-11-29T21:35:58.044Z,2.09
2022-11-29T21:38:26.805Z,2.12
2022-11-29T21:40:53.383Z,2.14
2022-11-29T21:43:20.820Z,2.13
2022-11-29T21:45:49.390Z,2.13
2022-11-29T21:48:34.372Z,2.11
2022-11-29T21:51:11.342Z,2.12
2022-11-29T21:53:39.053Z,2.14
2022-11-29T21:56:08.146Z,2.14
2022-11-29T21:58:35.854Z,2.14
2022-11-29T22:01:07.310Z,2.15
2022-11-29T22:03:34.420Z,2.13
2022-11-29T22:06:03.449Z,2.14
2022-11-29T22:08:33.636Z,2.15
2022-11-29T22:11:05.708Z,2.18
2022-11-29T22:13:32.540Z,2.15
2022-11-29T22:16:09.632Z,2.09
2022-11-29T22:18:37.116Z,2.06
2022-11-29T22:21:07.186Z,2.09
2022-11-29T22:23:34.282Z,2.11
2022-11-29T22:26:06.065Z,2.12
2022-11-29T22:28:33.621Z,2.11
2022-11-29T22:31:11.141Z,2.07
2022-11-29T22:33:38.585Z,2.07
2022-11-29T22:36:10.341Z,2.05
2022-11-29T22:38:37.727Z,2.06
2022-11-29T22:41:07.084Z,2.05
2022-11-29T22:43:34.675Z,2.09
2022-11-29T22:46:10.031Z,2.07
2022-11-29T22:48:39.190Z,2.07
2022-11-29T22:51:14.814Z,2.07
2022-11-29T22:53:43.307Z,2.02
2022-11-29T22:56:11.769Z,2.07
2022-11-29T22:58:38.372Z,2.09
2022-11-29T23:01:14.122Z,2.05
2022-11-29T23:03:48.110Z,2.05
2022-11-29T23:06:16.937Z,2.02
2022-11-29T23:08:45.197Z,2.01
2022-11-29T23:11:15.333Z,1.99
2022-11-29T23:13:43.399Z,1.99
2022-11-29T23:16:12.944Z,1.98
2022-11-29T23:18:42.177Z,1.99
2022-11-29T23:21:14.148Z,2.05
2022-11-29T23:23:41.160Z,2.02
2022-11-29T23:26:09.443Z,2.06
2022-11-29T23:28:36.254Z,2.04
2022-11-29T23:31:02.821Z,2.06
2022-11-29T23:33:29.435Z,2.09
2022-11-29T23:36:01.223Z,2.05
2022-11-29T23:38:28.209Z,2.04
2022-11-29T23:40:54.793Z,2.03
2022-11-29T23:43:21.915Z,2.05
2022-11-29T23:45:49.190Z,2.03
2022-11-29T23:48:16.147Z,2.03
2022-11-29T23:50:43.673Z,2.01
2022-11-29T23:53:14.635Z,2.00
2022-11-29T23:55:42.174Z,2.04
2022-11-29T23:58:09.905Z,2.02
